sensor_id;sensor_type;location;lat;lon;timestamp;P1;durP1;ratioP1;P2;durP2;ratioP2
13785;SDS011;47474;48.824;9.384;2023-04-06T00:02:16;6.27;;;5.53;;
13785;SDS011;47474;48.824;9.384;2023-04-06T00:04:44;6.50;;;5.50;;
13785;SDS011;47474;48.824;9.384;2023-04-06T00:07:10;8.40;;;5.73;;
13785;SDS011;47474;48.824;9.384;2023-04-06T00:09:37;8.43;;;5.53;;
13785;SDS011;47474;48.824;9.384;2023-04-06T00:12:03;6.33;;;5.53;;
13785;SDS011;47474;48.824;9.384;2023-04-06T00:14:30;7.90;;;5.97;;
13785;SDS011;47474;48.824;9.384;2023-04-06T00:16:57;7.00;;;6.23;;
13785;SDS011;47474;48.824;9.384;2023-04-06T00:19:23;8.07;;;6.40;;
13785;SDS011;47474;48.824;9.384;2023-04-06T00:21:51;7.77;;;6.03;;
13785;SDS011;47474;48.824;9.384;2023-04-06T00:24:18;7.83;;;5.77;;
13785;SDS011;47474;48.824;9.384;2023-04-06T00:26:44;8.83;;;6.90;;
13785;SDS011;47474;48.824;9.384;2023-04-06T00:29:11;7.70;;;5.70;;
13785;SDS011;47474;48.824;9.384;2023-04-06T00:31:37;7.30;;;6.13;;
13785;SDS011;47474;48.824;9.384;2023-04-06T00:34:05;7.67;;;5.47;;
13785;SDS011;47474;48.824;9.384;2023-04-06T00:36:32;9.17;;;5.93;;
13785;SDS011;47474;48.824;9.384;2023-04-06T00:38:59;6.10;;;5.20;;
13785;SDS011;47474;48.824;9.384;2023-04-06T00:41:26;7.10;;;5.60;;
13785;SDS011;47474;48.824;9.384;2023-04-06T00:43:53;7.30;;;5.73;;
13785;SDS011;47474;48.824;9.384;2023-04-06T00:46:20;6.63;;;5.37;;
13785;SDS011;47474;48.824;9.384;2023-04-06T00:48:46;6.93;;;5.90;;
13785;SDS011;47474;48.824;9.384;2023-04-06T00:51:15;8.40;;;5.03;;
13785;SDS011;47474;48.824;9.384;2023-04-06T00:53:42;7.17;;;5.83;;
13785;SDS011;47474;48.824;9.384;2023-04-06T00:56:10;8.90;;;6.43;;
13785;SDS011;47474;48.824;9.384;2023-04-06T00:58:36;7.17;;;5.70;;
13785;SDS011;47474;48.824;9.384;2023-04-06T01:01:03;8.70;;;6.27;;
13785;SDS011;47474;48.824;9.384;2023-04-06T01:03:30;7.60;;;6.07;;
13785;SDS011;47474;48.824;9.384;2023-04-06T01:05:57;6.63;;;5.97;;
13785;SDS011;47474;48.824;9.384;2023-04-06T01:08:24;10.30;;;6.40;;
13785;SDS011;47474;48.824;9.384;2023-04-06T01:10:51;7.10;;;6.33;;
13785;SDS011;47474;48.824;9.384;2023-04-06T01:13:19;6.00;;;5.40;;
13785;SDS011;47474;48.824;9.384;2023-04-06T01:15:45;6.20;;;5.63;;
13785;SDS011;47474;48.824;9.384;2023-04-06T01:18:12;7.57;;;6.17;;
13785;SDS011;47474;48.824;9.384;2023-04-06T01:20:39;8.50;;;5.90;;
13785;SDS011;47474;48.824;9.384;2023-04-06T01:23:07;7.40;;;5.80;;
13785;SDS011;47474;48.824;9.384;2023-04-06T01:25:33;8.80;;;5.77;;
13785;SDS011;47474;48.824;9.384;2023-04-06T01:28:00;10.17;;;6.20;;
13785;SDS011;47474;48.824;9.384;2023-04-06T01:30:26;8.70;;;6.70;;
13785;SDS011;47474;48.824;9.384;2023-04-06T01:32:53;6.30;;;5.53;;
13785;SDS011;47474;48.824;9.384;2023-04-06T01:35:19;10.27;;;6.07;;
13785;SDS011;47474;48.824;9.384;2023-04-06T01:37:46;8.87;;;6.03;;
13785;SDS011;47474;48.824;9.384;2023-04-06T01:40:14;7.37;;;6.20;;
13785;SDS011;47474;48.824;9.384;2023-04-06T01:42:41;9.90;;;6.40;;
13785;SDS011;47474;48.824;9.384;2023-04-06T01:45:07;8.97;;;6.40;;
13785;SDS011;47474;48.824;9.384;2023-04-06T01:47:35;6.97;;;6.27;;
13785;SDS011;47474;48.824;9.384;2023-04-06T01:50:01;6.40;;;5.80;;
13785;SDS011;47474;48.824;9.384;2023-04-06T01:52:31;8.00;;;6.30;;
13785;SDS011;47474;48.824;9.384;2023-04-06T01:54:57;7.77;;;6.40;;
13785;SDS011;47474;48.824;9.384;2023-04-06T01:57:25;7.47;;;6.10;;
13785;SDS011;47474;48.824;9.384;2023-04-06T01:59:51;9.03;;;6.70;;
13785;SDS011;47474;48.824;9.384;2023-04-06T02:02:18;8.33;;;6.70;;
13785;SDS011;47474;48.824;9.384;2023-04-06T02:04:45;9.43;;;6.53;;
13785;SDS011;47474;48.824;9.384;2023-04-06T02:07:11;7.80;;;6.17;;
13785;SDS011;47474;48.824;9.384;2023-04-06T02:09:38;6.50;;;5.80;;
13785;SDS011;47474;48.824;9.384;2023-04-06T02:12:04;7.87;;;6.00;;
13785;SDS011;47474;48.824;9.384;2023-04-06T02:14:33;7.37;;;6.23;;
13785;SDS011;47474;48.824;9.384;2023-04-06T02:16:59;7.57;;;6.23;;
13785;SDS011;47474;48.824;9.384;2023-04-06T02:19:26;8.90;;;6.13;;
13785;SDS011;47474;48.824;9.384;2023-04-06T02:21:53;6.87;;;5.97;;
13785;SDS011;47474;48.824;9.384;2023-04-06T02:24:19;8.97;;;6.07;;
13785;SDS011;47474;48.824;9.384;2023-04-06T02:26:46;7.00;;;5.73;;
13785;SDS011;47474;48.824;9.384;2023-04-06T02:29:12;7.03;;;5.90;;
13785;SDS011;47474;48.824;9.384;2023-04-06T02:31:40;10.00;;;6.03;;
13785;SDS011;47474;48.824;9.384;2023-04-06T02:34:07;8.07;;;6.13;;
13785;SDS011;47474;48.824;9.384;2023-04-06T02:36:36;8.57;;;6.47;;
13785;SDS011;47474;48.824;9.384;2023-04-06T02:39:03;6.83;;;6.00;;
13785;SDS011;47474;48.824;9.384;2023-04-06T02:41:29;6.77;;;5.70;;
13785;SDS011;47474;48.824;9.384;2023-04-06T02:43:56;8.37;;;6.17;;
13785;SDS011;47474;48.824;9.384;2023-04-06T02:46:23;6.40;;;5.80;;
13785;SDS011;47474;48.824;9.384;2023-04-06T02:48:50;7.90;;;5.83;;
13785;SDS011;47474;48.824;9.384;2023-04-06T02:51:17;7.57;;;5.47;;
13785;SDS011;47474;48.824;9.384;2023-04-06T02:53:44;6.83;;;6.13;;
13785;SDS011;47474;48.824;9.384;2023-04-06T02:56:10;10.17;;;5.90;;
13785;SDS011;47474;48.824;9.384;2023-04-06T02:58:37;7.33;;;6.07;;
13785;SDS011;47474;48.824;9.384;2023-04-06T03:01:03;7.57;;;6.20;;
13785;SDS011;47474;48.824;9.384;2023-04-06T03:03:30;9.03;;;6.63;;
13785;SDS011;47474;48.824;9.384;2023-04-06T03:05:58;7.63;;;6.53;;
13785;SDS011;47474;48.824;9.384;2023-04-06T03:08:25;8.67;;;6.10;;
13785;SDS011;47474;48.824;9.384;2023-04-06T03:10:51;8.00;;;6.33;;
13785;SDS011;47474;48.824;9.384;2023-04-06T03:13:18;7.80;;;5.87;;
13785;SDS011;47474;48.824;9.384;2023-04-06T03:15:44;10.87;;;6.37;;
13785;SDS011;47474;48.824;9.384;2023-04-06T03:18:11;6.33;;;5.73;;
13785;SDS011;47474;48.824;9.384;2023-04-06T03:20:37;11.37;;;7.13;;
13785;SDS011;47474;48.824;9.384;2023-04-06T03:23:05;10.40;;;6.93;;
13785;SDS011;47474;48.824;9.384;2023-04-06T03:25:32;7.70;;;6.30;;
13785;SDS011;47474;48.824;9.384;2023-04-06T03:27:58;8.63;;;6.50;;
13785;SDS011;47474;48.824;9.384;2023-04-06T03:30:25;9.43;;;5.97;;
13785;SDS011;47474;48.824;9.384;2023-04-06T03:32:51;8.30;;;6.90;;
13785;SDS011;47474;48.824;9.384;2023-04-06T03:35:18;11.43;;;6.17;;
13785;SDS011;47474;48.824;9.384;2023-04-06T03:37:44;6.70;;;5.73;;
13785;SDS011;47474;48.824;9.384;2023-04-06T03:40:12;7.30;;;6.27;;
13785;SDS011;47474;48.824;9.384;2023-04-06T03:42:39;6.93;;;6.10;;
13785;SDS011;47474;48.824;9.384;2023-04-06T03:45:06;8.27;;;6.30;;
13785;SDS011;47474;48.824;9.384;2023-04-06T03:47:33;6.47;;;5.83;;
13785;SDS011;47474;48.824;9.384;2023-04-06T03:50:00;8.00;;;6.50;;
13785;SDS011;47474;48.824;9.384;2023-04-06T03:52:27;9.57;;;6.97;;
13785;SDS011;47474;48.824;9.384;2023-04-06T03:54:54;7.77;;;6.33;;
13785;SDS011;47474;48.824;9.384;2023-04-06T03:57:22;7.80;;;6.43;;
13785;SDS011;47474;48.824;9.384;2023-04-06T03:59:48;8.10;;;6.77;;
13785;SDS011;47474;48.824;9.384;2023-04-06T04:02:15;10.77;;;6.70;;
13785;SDS011;47474;48.824;9.384;2023-04-06T04:04:42;7.27;;;6.53;;
13785;SDS011;47474;48.824;9.384;2023-04-06T04:07:08;9.63;;;6.70;;
13785;SDS011;47474;48.824;9.384;2023-04-06T04:09:35;8.23;;;6.67;;
13785;SDS011;47474;48.824;9.384;2023-04-06T04:12:02;8.07;;;6.43;;
13785;SDS011;47474;48.824;9.384;2023-04-06T04:14:30;11.57;;;6.57;;
13785;SDS011;47474;48.824;9.384;2023-04-06T04:16:57;7.97;;;6.47;;
13785;SDS011;47474;48.824;9.384;2023-04-06T04:19:23;8.70;;;5.97;;
13785;SDS011;47474;48.824;9.384;2023-04-06T04:21:50;9.70;;;6.17;;
13785;SDS011;47474;48.824;9.384;2023-04-06T04:24:16;7.03;;;5.57;;
13785;SDS011;47474;48.824;9.384;2023-04-06T04:26:43;10.23;;;6.50;;
13785;SDS011;47474;48.824;9.384;2023-04-06T04:29:10;6.93;;;6.20;;
13785;SDS011;47474;48.824;9.384;2023-04-06T04:31:37;8.93;;;5.93;;
13785;SDS011;47474;48.824;9.384;2023-04-06T04:34:04;9.63;;;6.70;;
13785;SDS011;47474;48.824;9.384;2023-04-06T04:36:31;8.20;;;6.50;;
13785;SDS011;47474;48.824;9.384;2023-04-06T04:38:58;10.10;;;6.53;;
13785;SDS011;47474;48.824;9.384;2023-04-06T04:41:26;8.97;;;6.70;;
13785;SDS011;47474;48.824;9.384;2023-04-06T04:43:52;8.00;;;6.40;;
13785;SDS011;47474;48.824;9.384;2023-04-06T04:46:19;8.20;;;6.20;;
13785;SDS011;47474;48.824;9.384;2023-04-06T04:48:47;8.27;;;6.53;;
13785;SDS011;47474;48.824;9.384;2023-04-06T04:51:15;8.93;;;6.53;;
13785;SDS011;47474;48.824;9.384;2023-04-06T04:53:41;8.33;;;6.97;;
13785;SDS011;47474;48.824;9.384;2023-04-06T04:56:08;9.13;;;6.33;;
13785;SDS011;47474;48.824;9.384;2023-04-06T04:58:34;7.83;;;6.93;;
13785;SDS011;47474;48.824;9.384;2023-04-06T05:01:01;8.97;;;6.97;;
13785;SDS011;47474;48.824;9.384;2023-04-06T05:03:27;7.77;;;5.90;;
13785;SDS011;47474;48.824;9.384;2023-04-06T05:05:55;7.93;;;6.20;;
13785;SDS011;47474;48.824;9.384;2023-04-06T05:08:21;8.13;;;6.37;;
13785;SDS011;47474;48.824;9.384;2023-04-06T05:10:48;8.73;;;6.67;;
13785;SDS011;47474;48.824;9.384;2023-04-06T05:13:15;8.33;;;6.47;;
13785;SDS011;47474;48.824;9.384;2023-04-06T05:15:41;9.77;;;6.80;;
13785;SDS011;47474;48.824;9.384;2023-04-06T05:18:08;9.03;;;6.47;;
13785;SDS011;47474;48.824;9.384;2023-04-06T05:20:35;9.97;;;6.50;;
13785;SDS011;47474;48.824;9.384;2023-04-06T05:23:03;9.73;;;6.10;;
13785;SDS011;47474;48.824;9.384;2023-04-06T05:25:30;7.07;;;6.37;;
13785;SDS011;47474;48.824;9.384;2023-04-06T05:27:56;13.53;;;7.30;;
13785;SDS011;47474;48.824;9.384;2023-04-06T05:30:23;8.33;;;6.87;;
13785;SDS011;47474;48.824;9.384;2023-04-06T05:32:50;8.20;;;6.87;;
13785;SDS011;47474;48.824;9.384;2023-04-06T05:35:16;9.00;;;7.13;;
13785;SDS011;47474;48.824;9.384;2023-04-06T05:37:43;8.47;;;6.57;;
13785;SDS011;47474;48.824;9.384;2023-04-06T05:40:11;7.63;;;6.77;;
13785;SDS011;47474;48.824;9.384;2023-04-06T05:42:37;9.00;;;7.10;;
13785;SDS011;47474;48.824;9.384;2023-04-06T05:45:04;7.67;;;6.10;;
13785;SDS011;47474;48.824;9.384;2023-04-06T05:47:31;7.50;;;6.17;;
13785;SDS011;47474;48.824;9.384;2023-04-06T05:49:58;9.87;;;6.97;;
13785;SDS011;47474;48.824;9.384;2023-04-06T05:52:24;13.57;;;7.10;;
13785;SDS011;47474;48.824;9.384;2023-04-06T05:54:51;8.03;;;6.40;;
13785;SDS011;47474;48.824;9.384;2023-04-06T05:57:19;8.80;;;6.87;;
13785;SDS011;47474;48.824;9.384;2023-04-06T05:59:45;7.73;;;5.93;;
13785;SDS011;47474;48.824;9.384;2023-04-06T06:02:12;8.07;;;7.17;;
13785;SDS011;47474;48.824;9.384;2023-04-06T06:04:39;7.13;;;6.43;;
13785;SDS011;47474;48.824;9.384;2023-04-06T06:07:05;9.17;;;6.37;;
13785;SDS011;47474;48.824;9.384;2023-04-06T06:09:31;9.30;;;6.73;;
13785;SDS011;47474;48.824;9.384;2023-04-06T06:11:59;8.67;;;6.60;;
13785;SDS011;47474;48.824;9.384;2023-04-06T06:14:27;9.03;;;7.40;;
13785;SDS011;47474;48.824;9.384;2023-04-06T06:16:54;10.27;;;7.60;;
13785;SDS011;47474;48.824;9.384;2023-04-06T06:19:22;8.20;;;7.03;;
13785;SDS011;47474;48.824;9.384;2023-04-06T06:21:50;8.13;;;6.87;;
13785;SDS011;47474;48.824;9.384;2023-04-06T06:24:31;8.60;;;7.07;;
13785;SDS011;47474;48.824;9.384;2023-04-06T06:27:12;10.83;;;7.47;;
13785;SDS011;47474;48.824;9.384;2023-04-06T06:36:28;9.93;;;8.03;;
13785;SDS011;47474;48.824;9.384;2023-04-06T06:39:09;10.20;;;7.47;;
13785;SDS011;47474;48.824;9.384;2023-04-06T06:41:51;13.33;;;7.70;;
13785;SDS011;47474;48.824;9.384;2023-04-06T06:44:32;11.47;;;8.13;;
13785;SDS011;47474;48.824;9.384;2023-04-06T06:47:12;13.23;;;8.53;;
13785;SDS011;47474;48.824;9.384;2023-04-06T06:49:53;10.67;;;7.03;;
13785;SDS011;47474;48.824;9.384;2023-04-06T06:52:36;9.97;;;8.03;;
13785;SDS011;47474;48.824;9.384;2023-04-06T06:55:05;10.53;;;7.83;;
13785;SDS011;47474;48.824;9.384;2023-04-06T06:57:46;10.03;;;8.13;;
13785;SDS011;47474;48.824;9.384;2023-04-06T07:00:27;11.03;;;8.70;;
13785;SDS011;47474;48.824;9.384;2023-04-06T07:03:08;9.03;;;8.00;;
13785;SDS011;47474;48.824;9.384;2023-04-06T07:05:50;14.70;;;8.93;;
13785;SDS011;47474;48.824;9.384;2023-04-06T07:11:46;13.30;;;8.73;;
13785;SDS011;47474;48.824;9.384;2023-04-06T07:14:26;11.93;;;9.40;;
13785;SDS011;47474;48.824;9.384;2023-04-06T07:16:54;10.77;;;8.13;;
13785;SDS011;47474;48.824;9.384;2023-04-06T07:19:22;11.73;;;8.97;;
13785;SDS011;47474;48.824;9.384;2023-04-06T07:22:03;10.83;;;8.90;;
13785;SDS011;47474;48.824;9.384;2023-04-06T07:24:34;10.97;;;8.87;;
13785;SDS011;47474;48.824;9.384;2023-04-06T07:27:01;14.90;;;9.30;;
13785;SDS011;47474;48.824;9.384;2023-04-06T07:29:28;13.20;;;9.27;;
13785;SDS011;47474;48.824;9.384;2023-04-06T07:31:55;10.70;;;8.13;;
13785;SDS011;47474;48.824;9.384;2023-04-06T07:34:21;12.50;;;9.30;;
13785;SDS011;47474;48.824;9.384;2023-04-06T07:36:48;12.37;;;9.43;;
13785;SDS011;47474;48.824;9.384;2023-04-06T07:39:15;11.50;;;8.67;;
13785;SDS011;47474;48.824;9.384;2023-04-06T07:41:41;11.13;;;8.37;;
13785;SDS011;47474;48.824;9.384;2023-04-06T07:44:09;10.07;;;8.43;;
13785;SDS011;47474;48.824;9.384;2023-04-06T07:46:36;10.30;;;8.07;;
13785;SDS011;47474;48.824;9.384;2023-04-06T07:49:02;10.60;;;7.67;;
13785;SDS011;47474;48.824;9.384;2023-04-06T07:51:29;9.23;;;7.67;;
13785;SDS011;47474;48.824;9.384;2023-04-06T07:53:56;10.07;;;8.07;;
13785;SDS011;47474;48.824;9.384;2023-04-06T07:56:22;9.23;;;8.00;;
13785;SDS011;47474;48.824;9.384;2023-04-06T07:58:50;9.20;;;7.37;;
13785;SDS011;47474;48.824;9.384;2023-04-06T08:01:18;9.03;;;7.30;;
13785;SDS011;47474;48.824;9.384;2023-04-06T08:03:45;9.63;;;6.93;;
13785;SDS011;47474;48.824;9.384;2023-04-06T08:06:11;11.47;;;7.97;;
13785;SDS011;47474;48.824;9.384;2023-04-06T08:08:52;7.97;;;7.10;;
13785;SDS011;47474;48.824;9.384;2023-04-06T08:11:18;8.63;;;6.73;;
13785;SDS011;47474;48.824;9.384;2023-04-06T08:13:45;8.97;;;7.50;;
13785;SDS011;47474;48.824;9.384;2023-04-06T08:16:12;8.43;;;7.40;;
13785;SDS011;47474;48.824;9.384;2023-04-06T08:18:40;8.97;;;7.67;;
13785;SDS011;47474;48.824;9.384;2023-04-06T08:21:06;9.87;;;7.50;;
13785;SDS011;47474;48.824;9.384;2023-04-06T08:23:33;11.87;;;7.67;;
13785;SDS011;47474;48.824;9.384;2023-04-06T08:25:59;9.70;;;7.53;;
13785;SDS011;47474;48.824;9.384;2023-04-06T08:28:26;8.23;;;7.23;;
13785;SDS011;47474;48.824;9.384;2023-04-06T08:30:52;9.10;;;7.30;;
13785;SDS011;47474;48.824;9.384;2023-04-06T08:33:19;11.97;;;7.00;;
13785;SDS011;47474;48.824;9.384;2023-04-06T08:35:47;8.33;;;7.00;;
13785;SDS011;47474;48.824;9.384;2023-04-06T08:38:13;9.73;;;7.40;;
13785;SDS011;47474;48.824;9.384;2023-04-06T08:40:40;11.17;;;7.50;;
13785;SDS011;47474;48.824;9.384;2023-04-06T08:43:09;10.03;;;7.10;;
13785;SDS011;47474;48.824;9.384;2023-04-06T08:45:38;11.20;;;7.67;;
13785;SDS011;47474;48.824;9.384;2023-04-06T08:48:05;8.97;;;7.47;;
13785;SDS011;47474;48.824;9.384;2023-04-06T08:50:32;10.10;;;7.00;;
13785;SDS011;47474;48.824;9.384;2023-04-06T08:53:01;10.30;;;6.77;;
13785;SDS011;47474;48.824;9.384;2023-04-06T08:55:28;9.80;;;7.57;;
13785;SDS011;47474;48.824;9.384;2023-04-06T08:57:55;8.47;;;6.87;;
13785;SDS011;47474;48.824;9.384;2023-04-06T09:00:22;8.53;;;6.67;;
13785;SDS011;47474;48.824;9.384;2023-04-06T09:02:49;10.33;;;7.27;;
13785;SDS011;47474;48.824;9.384;2023-04-06T09:05:16;9.17;;;6.87;;
13785;SDS011;47474;48.824;9.384;2023-04-06T09:07:42;9.70;;;6.90;;
13785;SDS011;47474;48.824;9.384;2023-04-06T09:10:10;9.83;;;6.87;;
13785;SDS011;47474;48.824;9.384;2023-04-06T09:12:37;10.90;;;7.40;;
13785;SDS011;47474;48.824;9.384;2023-04-06T09:15:04;8.87;;;7.57;;
13785;SDS011;47474;48.824;9.384;2023-04-06T09:17:31;10.17;;;7.40;;
13785;SDS011;47474;48.824;9.384;2023-04-06T09:19:59;10.70;;;6.93;;
13785;SDS011;47474;48.824;9.384;2023-04-06T09:22:25;12.00;;;7.47;;
13785;SDS011;47474;48.824;9.384;2023-04-06T09:25:00;9.60;;;7.40;;
13785;SDS011;47474;48.824;9.384;2023-04-06T09:27:31;10.77;;;7.27;;
13785;SDS011;47474;48.824;9.384;2023-04-06T09:30:05;9.17;;;7.10;;
13785;SDS011;47474;48.824;9.384;2023-04-06T09:32:43;9.53;;;7.07;;
13785;SDS011;47474;48.824;9.384;2023-04-06T09:35:10;9.77;;;7.10;;
13785;SDS011;47474;48.824;9.384;2023-04-06T09:37:37;10.10;;;7.37;;
13785;SDS011;47474;48.824;9.384;2023-04-06T09:40:04;9.30;;;6.90;;
13785;SDS011;47474;48.824;9.384;2023-04-06T09:42:33;9.93;;;6.60;;
13785;SDS011;47474;48.824;9.384;2023-04-06T09:45:00;8.07;;;6.30;;
13785;SDS011;47474;48.824;9.384;2023-04-06T09:47:26;9.90;;;7.13;;
13785;SDS011;47474;48.824;9.384;2023-04-06T09:49:55;11.57;;;7.97;;
13785;SDS011;47474;48.824;9.384;2023-04-06T09:52:23;9.70;;;7.00;;
13785;SDS011;47474;48.824;9.384;2023-04-06T09:54:50;8.43;;;6.50;;
13785;SDS011;47474;48.824;9.384;2023-04-06T09:57:20;9.03;;;7.23;;
13785;SDS011;47474;48.824;9.384;2023-04-06T09:59:54;8.37;;;5.87;;
13785;SDS011;47474;48.824;9.384;2023-04-06T10:02:25;9.00;;;6.30;;
13785;SDS011;47474;48.824;9.384;2023-04-06T10:04:56;10.00;;;6.17;;
13785;SDS011;47474;48.824;9.384;2023-04-06T10:07:25;11.03;;;7.00;;
13785;SDS011;47474;48.824;9.384;2023-04-06T10:09:52;7.73;;;6.03;;
13785;SDS011;47474;48.824;9.384;2023-04-06T10:12:19;7.70;;;6.07;;
13785;SDS011;47474;48.824;9.384;2023-04-06T10:14:46;7.53;;;5.43;;
13785;SDS011;47474;48.824;9.384;2023-04-06T10:17:14;7.60;;;5.83;;
13785;SDS011;47474;48.824;9.384;2023-04-06T10:19:41;9.13;;;6.40;;
13785;SDS011;47474;48.824;9.384;2023-04-06T10:22:12;7.03;;;6.23;;
13785;SDS011;47474;48.824;9.384;2023-04-06T10:24:44;7.77;;;5.93;;
13785;SDS011;47474;48.824;9.384;2023-04-06T10:27:11;7.80;;;5.97;;
13785;SDS011;47474;48.824;9.384;2023-04-06T10:29:42;7.20;;;5.97;;
13785;SDS011;47474;48.824;9.384;2023-04-06T10:32:10;6.67;;;5.77;;
13785;SDS011;47474;48.824;9.384;2023-04-06T10:34:38;7.47;;;5.80;;
13785;SDS011;47474;48.824;9.384;2023-04-06T10:37:15;8.10;;;6.37;;
13785;SDS011;47474;48.824;9.384;2023-04-06T10:39:46;8.90;;;6.80;;
13785;SDS011;47474;48.824;9.384;2023-04-06T10:42:13;6.67;;;5.40;;
13785;SDS011;47474;48.824;9.384;2023-04-06T10:44:42;6.90;;;5.80;;
13785;SDS011;47474;48.824;9.384;2023-04-06T10:47:15;7.73;;;5.63;;
13785;SDS011;47474;48.824;9.384;2023-04-06T10:49:43;7.90;;;5.73;;
13785;SDS011;47474;48.824;9.384;2023-04-06T10:52:10;7.33;;;5.63;;
13785;SDS011;47474;48.824;9.384;2023-04-06T10:54:38;7.57;;;5.83;;
13785;SDS011;47474;48.824;9.384;2023-04-06T10:57:07;7.43;;;6.00;;
13785;SDS011;47474;48.824;9.384;2023-04-06T10:59:34;7.47;;;5.50;;
13785;SDS011;47474;48.824;9.384;2023-04-06T11:02:01;7.07;;;5.57;;
13785;SDS011;47474;48.824;9.384;2023-04-06T11:04:28;10.53;;;5.37;;
13785;SDS011;47474;48.824;9.384;2023-04-06T11:06:56;6.47;;;5.37;;
13785;SDS011;47474;48.824;9.384;2023-04-06T11:09:23;6.63;;;5.80;;
13785;SDS011;47474;48.824;9.384;2023-04-06T11:11:51;7.00;;;5.17;;
13785;SDS011;47474;48.824;9.384;2023-04-06T11:14:18;8.10;;;5.13;;
13785;SDS011;47474;48.824;9.384;2023-04-06T11:16:46;7.13;;;5.37;;
13785;SDS011;47474;48.824;9.384;2023-04-06T11:19:12;6.93;;;4.80;;
13785;SDS011;47474;48.824;9.384;2023-04-06T11:21:39;9.47;;;4.87;;
13785;SDS011;47474;48.824;9.384;2023-04-06T11:24:10;5.77;;;4.23;;
13785;SDS011;47474;48.824;9.384;2023-04-06T11:26:38;6.43;;;5.73;;
13785;SDS011;47474;48.824;9.384;2023-04-06T11:29:05;6.70;;;4.97;;
13785;SDS011;47474;48.824;9.384;2023-04-06T11:31:37;5.07;;;4.57;;
13785;SDS011;47474;48.824;9.384;2023-04-06T11:34:08;5.83;;;5.00;;
13785;SDS011;47474;48.824;9.384;2023-04-06T11:36:35;5.90;;;4.73;;
13785;SDS011;47474;48.824;9.384;2023-04-06T11:39:02;5.97;;;4.77;;
13785;SDS011;47474;48.824;9.384;2023-04-06T11:41:30;6.83;;;4.73;;
13785;SDS011;47474;48.824;9.384;2023-04-06T11:44:00;7.20;;;5.17;;
13785;SDS011;47474;48.824;9.384;2023-04-06T11:46:27;5.23;;;4.70;;
13785;SDS011;47474;48.824;9.384;2023-04-06T11:48:57;5.90;;;4.40;;
13785;SDS011;47474;48.824;9.384;2023-04-06T11:51:27;5.23;;;4.60;;
13785;SDS011;47474;48.824;9.384;2023-04-06T11:53:53;6.03;;;4.90;;
13785;SDS011;47474;48.824;9.384;2023-04-06T11:56:27;7.13;;;5.13;;
13785;SDS011;47474;48.824;9.384;2023-04-06T11:58:56;6.50;;;5.13;;
13785;SDS011;47474;48.824;9.384;2023-04-06T12:01:25;6.80;;;5.10;;
13785;SDS011;47474;48.824;9.384;2023-04-06T12:03:52;5.33;;;4.67;;
13785;SDS011;47474;48.824;9.384;2023-04-06T12:06:19;5.80;;;4.63;;
13785;SDS011;47474;48.824;9.384;2023-04-06T12:08:45;6.50;;;4.67;;
13785;SDS011;47474;48.824;9.384;2023-04-06T12:11:12;5.97;;;4.67;;
13785;SDS011;47474;48.824;9.384;2023-04-06T12:13:38;8.07;;;5.10;;
13785;SDS011;47474;48.824;9.384;2023-04-06T12:16:06;6.93;;;5.03;;
13785;SDS011;47474;48.824;9.384;2023-04-06T12:18:33;5.77;;;4.53;;
13785;SDS011;47474;48.824;9.384;2023-04-06T12:20:59;7.50;;;4.40;;
13785;SDS011;47474;48.824;9.384;2023-04-06T12:23:26;5.67;;;4.13;;
13785;SDS011;47474;48.824;9.384;2023-04-06T12:25:52;5.40;;;4.03;;
13785;SDS011;47474;48.824;9.384;2023-04-06T12:28:19;5.93;;;4.70;;
13785;SDS011;47474;48.824;9.384;2023-04-06T12:30:48;5.70;;;4.77;;
13785;SDS011;47474;48.824;9.384;2023-04-06T12:33:16;5.73;;;4.87;;
13785;SDS011;47474;48.824;9.384;2023-04-06T12:35:42;6.78;;;4.55;;
13785;SDS011;47474;48.824;9.384;2023-04-06T12:38:09;4.80;;;4.30;;
13785;SDS011;47474;48.824;9.384;2023-04-06T12:40:36;5.00;;;4.43;;
13785;SDS011;47474;48.824;9.384;2023-04-06T12:43:04;5.53;;;4.30;;
13785;SDS011;47474;48.824;9.384;2023-04-06T12:45:32;4.37;;;3.80;;
13785;SDS011;47474;48.824;9.384;2023-04-06T12:47:58;5.30;;;4.50;;
13785;SDS011;47474;48.824;9.384;2023-04-06T12:50:27;5.70;;;4.45;;
13785;SDS011;47474;48.824;9.384;2023-04-06T12:52:53;5.35;;;3.75;;
13785;SDS011;47474;48.824;9.384;2023-04-06T12:55:20;7.10;;;4.40;;
13785;SDS011;47474;48.824;9.384;2023-04-06T12:57:47;6.67;;;4.47;;
13785;SDS011;47474;48.824;9.384;2023-04-06T13:00:14;5.17;;;4.10;;
13785;SDS011;47474;48.824;9.384;2023-04-06T13:02:42;4.45;;;3.95;;
13785;SDS011;47474;48.824;9.384;2023-04-06T13:05:12;4.30;;;3.90;;
13785;SDS011;47474;48.824;9.384;2023-04-06T13:07:40;4.18;;;3.50;;
13785;SDS011;47474;48.824;9.384;2023-04-06T13:10:07;5.18;;;3.97;;
13785;SDS011;47474;48.824;9.384;2023-04-06T13:12:34;4.17;;;3.70;;
13785;SDS011;47474;48.824;9.384;2023-04-06T13:15:01;5.43;;;4.10;;
13785;SDS011;47474;48.824;9.384;2023-04-06T13:17:28;4.50;;;4.10;;
13785;SDS011;47474;48.824;9.384;2023-04-06T13:19:55;4.83;;;4.07;;
13785;SDS011;47474;48.824;9.384;2023-04-06T13:22:22;5.78;;;3.72;;
13785;SDS011;47474;48.824;9.384;2023-04-06T13:24:49;5.00;;;3.90;;
13785;SDS011;47474;48.824;9.384;2023-04-06T13:27:16;6.80;;;3.97;;
13785;SDS011;47474;48.824;9.384;2023-04-06T13:29:42;5.80;;;4.10;;
13785;SDS011;47474;48.824;9.384;2023-04-06T13:32:09;4.72;;;3.60;;
13785;SDS011;47474;48.824;9.384;2023-04-06T13:34:35;4.75;;;3.72;;
13785;SDS011;47474;48.824;9.384;2023-04-06T13:37:02;6.18;;;4.25;;
13785;SDS011;47474;48.824;9.384;2023-04-06T13:39:28;4.93;;;4.07;;
13785;SDS011;47474;48.824;9.384;2023-04-06T13:41:56;3.92;;;3.55;;
13785;SDS011;47474;48.824;9.384;2023-04-06T13:44:23;5.00;;;4.30;;
13785;SDS011;47474;48.824;9.384;2023-04-06T13:46:50;5.88;;;4.60;;
13785;SDS011;47474;48.824;9.384;2023-04-06T13:49:16;6.05;;;4.32;;
13785;SDS011;47474;48.824;9.384;2023-04-06T13:51:42;5.97;;;4.53;;
13785;SDS011;47474;48.824;9.384;2023-04-06T13:54:09;4.40;;;4.00;;
13785;SDS011;47474;48.824;9.384;2023-04-06T13:56:35;5.53;;;4.50;;
13785;SDS011;47474;48.824;9.384;2023-04-06T13:59:03;5.22;;;3.90;;
13785;SDS011;47474;48.824;9.384;2023-04-06T14:01:30;5.82;;;3.97;;
13785;SDS011;47474;48.824;9.384;2023-04-06T14:03:57;5.72;;;4.30;;
13785;SDS011;47474;48.824;9.384;2023-04-06T14:06:23;5.13;;;4.18;;
13785;SDS011;47474;48.824;9.384;2023-04-06T14:08:50;3.58;;;3.20;;
13785;SDS011;47474;48.824;9.384;2023-04-06T14:11:16;6.72;;;3.95;;
13785;SDS011;47474;48.824;9.384;2023-04-06T14:13:43;5.13;;;4.13;;
13785;SDS011;47474;48.824;9.384;2023-04-06T14:16:11;4.95;;;3.88;;
13785;SDS011;47474;48.824;9.384;2023-04-06T14:18:37;5.75;;;4.22;;
13785;SDS011;47474;48.824;9.384;2023-04-06T14:21:04;5.38;;;4.40;;
13785;SDS011;47474;48.824;9.384;2023-04-06T14:23:31;5.57;;;4.35;;
13785;SDS011;47474;48.824;9.384;2023-04-06T14:26:02;5.75;;;3.97;;
13785;SDS011;47474;48.824;9.384;2023-04-06T14:28:29;5.72;;;3.90;;
13785;SDS011;47474;48.824;9.384;2023-04-06T14:30:56;4.65;;;3.83;;
13785;SDS011;47474;48.824;9.384;2023-04-06T14:33:24;6.22;;;4.80;;
13785;SDS011;47474;48.824;9.384;2023-04-06T14:35:51;5.50;;;4.35;;
13785;SDS011;47474;48.824;9.384;2023-04-06T14:38:17;5.13;;;4.20;;
13785;SDS011;47474;48.824;9.384;2023-04-06T14:40:44;4.18;;;3.78;;
13785;SDS011;47474;48.824;9.384;2023-04-06T14:43:11;4.47;;;4.07;;
13785;SDS011;47474;48.824;9.384;2023-04-06T14:45:37;4.77;;;3.97;;
13785;SDS011;47474;48.824;9.384;2023-04-06T14:48:04;5.83;;;3.80;;
13785;SDS011;47474;48.824;9.384;2023-04-06T14:50:32;5.47;;;4.03;;
13785;SDS011;47474;48.824;9.384;2023-04-06T14:52:59;5.33;;;3.60;;
13785;SDS011;47474;48.824;9.384;2023-04-06T14:55:25;4.23;;;3.53;;
13785;SDS011;47474;48.824;9.384;2023-04-06T14:57:52;5.30;;;3.73;;
13785;SDS011;47474;48.824;9.384;2023-04-06T15:00:19;6.00;;;4.10;;